createdAt,value
2019-04-04T00:00:27.441Z,30.37
2019-04-04T00:01:00.719Z,30.43
2019-04-04T00:01:33.938Z,30.43
2019-04-04T00:02:07.104Z,30.39
2019-04-04T00:02:38.384Z,30.52
2019-04-04T00:03:09.679Z,30.58
2019-04-04T00:03:42.970Z,30.55
2019-04-04T00:04:14.338Z,30.63
2019-04-04T00:04:45.622Z,30.69
2019-04-04T00:05:16.938Z,30.62
2019-04-04T00:05:48.214Z,30.66
2019-04-04T00:06:19.520Z,30.68
2019-04-04T00:06:51.815Z,31.03
2019-04-04T00:07:23.195Z,31.03
2019-04-04T00:07:54.475Z,30.79
2019-04-04T00:08:25.742Z,30.82
2019-04-04T00:08:57.045Z,30.81
2019-04-04T00:09:31.161Z,30.82
2019-04-04T00:10:05.003Z,30.85
2019-04-04T00:10:36.280Z,30.89
2019-04-04T00:11:07.661Z,31.05
2019-04-04T00:11:38.948Z,31.11
2019-04-04T00:12:10.353Z,31.04
2019-04-04T00:12:41.737Z,31.05
2019-04-04T00:13:13.047Z,31.25
2019-04-04T00:13:44.539Z,31.25
2019-04-04T00:14:15.919Z,31.16
2019-04-04T00:14:47.403Z,31.28
2019-04-04T00:15:18.797Z,31.43
2019-04-04T00:15:50.181Z,31.37
2019-04-04T00:16:21.573Z,31.50
2019-04-04T00:16:52.968Z,31.50
2019-04-04T00:17:24.395Z,31.52
2019-04-04T00:17:55.902Z,31.54
2019-04-04T00:18:27.996Z,31.52
2019-04-04T00:18:59.561Z,31.57
2019-04-04T00:19:30.983Z,31.63
2019-04-04T00:20:05.354Z,31.61
2019-04-04T00:20:37.772Z,31.58
2019-04-04T00:21:09.139Z,31.67
2019-04-04T00:21:40.475Z,31.70
2019-04-04T00:22:11.733Z,31.78
2019-04-04T00:22:43.185Z,31.83
2019-04-04T00:23:14.730Z,31.81
2019-04-04T00:23:46.173Z,31.90
2019-04-04T00:24:17.627Z,31.81
2019-04-04T00:24:49.073Z,31.86
2019-04-04T00:25:20.521Z,31.85
2019-04-04T00:25:52.962Z,31.89
2019-04-04T00:26:24.501Z,31.92
2019-04-04T00:26:56.034Z,31.88
2019-04-04T00:27:27.450Z,31.89
2019-04-04T00:27:58.838Z,31.95
2019-04-04T00:28:30.573Z,32.34
2019-04-04T00:29:02.128Z,32.34
2019-04-04T00:29:33.794Z,32.22
2019-04-04T00:30:05.980Z,32.20
2019-04-04T00:30:37.374Z,32.25
2019-04-04T00:31:08.763Z,32.19
2019-04-04T00:31:40.157Z,32.24
2019-04-04T00:32:11.538Z,32.23
2019-04-04T00:32:42.932Z,32.21
2019-04-04T00:33:14.320Z,32.41
2019-04-04T00:33:45.716Z,32.41
2019-04-04T00:34:17.298Z,32.47
2019-04-04T00:34:48.754Z,32.52
2019-04-04T00:35:20.196Z,32.61
2019-04-04T00:35:51.605Z,32.72
2019-04-04T00:36:23.002Z,32.58
2019-04-04T00:36:54.432Z,32.50
2019-04-04T00:37:25.729Z,32.50
2019-04-04T00:37:57.107Z,32.68
2019-04-04T00:38:29.921Z,32.80
2019-04-04T00:39:01.325Z,32.67
2019-04-04T00:39:33.003Z,32.75
2019-04-04T00:40:05.618Z,32.83
2019-04-04T00:40:37.001Z,32.88
2019-04-04T00:41:08.489Z,32.90
2019-04-04T00:41:39.877Z,32.91
2019-04-04T00:42:11.303Z,32.94
2019-04-04T00:42:42.705Z,32.95
2019-04-04T00:43:14.125Z,32.98
2019-04-04T00:43:45.665Z,32.95
2019-04-04T00:44:17.121Z,33.13
2019-04-04T00:44:48.565Z,33.04
2019-04-04T00:45:20.018Z,33.09
2019-04-04T00:45:51.479Z,33.18
2019-04-04T00:46:22.944Z,33.22
2019-04-04T00:46:54.519Z,33.25
2019-04-04T00:47:25.961Z,33.28
2019-04-04T00:47:57.394Z,33.36
2019-04-04T00:48:28.772Z,33.39
2019-04-04T00:49:00.574Z,33.43
2019-04-04T00:49:31.935Z,33.49
2019-04-04T00:50:06.701Z,33.53
2019-04-04T00:50:38.230Z,33.54
2019-04-04T00:51:10.658Z,33.54
2019-04-04T00:51:42.025Z,33.60
2019-04-04T00:52:13.438Z,33.65
2019-04-04T00:52:44.810Z,33.61
2019-04-04T00:53:16.344Z,33.65
2019-04-04T00:53:47.708Z,33.70
2019-04-04T00:54:19.128Z,33.73
2019-04-04T00:54:50.500Z,33.87
2019-04-04T00:55:22.030Z,33.83
2019-04-04T00:55:53.414Z,33.84
2019-04-04T00:56:24.740Z,33.99
2019-04-04T00:56:56.124Z,34.02
2019-04-04T00:57:27.441Z,34.06
2019-04-04T00:57:58.828Z,34.08
2019-04-04T00:58:30.470Z,34.08
2019-04-04T00:59:03.089Z,34.09
2019-04-04T00:59:34.613Z,34.06
2019-04-04T01:00:06.797Z,34.12
2019-04-04T01:00:38.264Z,34.13
2019-04-04T01:01:09.859Z,34.12
2019-04-04T01:01:41.398Z,34.18
2019-04-04T01:02:12.777Z,34.22
2019-04-04T01:02:44.315Z,34.20
2019-04-04T01:03:15.722Z,34.29
2019-04-04T01:03:47.183Z,34.35
2019-04-04T01:04:18.707Z,34.34
2019-04-04T01:04:50.161Z,34.35
2019-04-04T01:05:21.724Z,34.36
2019-04-04T01:05:53.187Z,34.28
2019-04-04T01:06:24.637Z,34.35
2019-04-04T01:06:56.196Z,34.40
2019-04-04T01:07:27.764Z,34.41
2019-04-04T01:07:59.220Z,34.53
2019-04-04T01:08:30.888Z,34.44
2019-04-04T01:09:05.112Z,34.52
2019-04-04T01:09:36.925Z,34.53
2019-04-04T01:10:08.295Z,34.52
2019-04-04T01:10:39.714Z,34.59
2019-04-04T01:11:11.091Z,34.64
2019-04-04T01:11:42.515Z,34.73
2019-04-04T01:12:13.879Z,34.72
2019-04-04T01:12:45.294Z,34.77
2019-04-04T01:13:16.692Z,34.76
2019-04-04T01:13:48.144Z,34.75
2019-04-04T01:14:19.899Z,34.78
2019-04-04T01:14:51.452Z,34.78
2019-04-04T01:15:22.988Z,34.83
2019-04-04T01:15:54.544Z,34.93
2019-04-04T01:16:27.007Z,35.00
2019-04-04T01:16:58.577Z,35.08
2019-04-04T01:17:30.120Z,35.08
2019-04-04T01:18:01.600Z,35.07
2019-04-04T01:18:33.028Z,35.09
2019-04-04T01:19:04.491Z,35.12
2019-04-04T01:19:35.917Z,35.15
2019-04-04T01:20:07.681Z,35.19
2019-04-04T01:20:39.094Z,35.18
2019-04-04T01:21:10.509Z,35.22
2019-04-04T01:21:41.991Z,35.29
2019-04-04T01:22:13.382Z,35.20
2019-04-04T01:22:44.809Z,35.23
2019-04-04T01:23:16.221Z,35.33
2019-04-04T01:23:47.725Z,35.42
2019-04-04T01:24:19.132Z,35.51
2019-04-04T01:24:50.547Z,35.48
2019-04-04T01:25:21.947Z,35.50
2019-04-04T01:25:53.341Z,35.50
2019-04-04T01:26:24.744Z,35.49
2019-04-04T01:26:56.140Z,35.50
2019-04-04T01:27:28.527Z,35.54
2019-04-04T01:27:59.926Z,35.51
2019-04-04T01:28:32.356Z,35.59
2019-04-04T01:29:05.741Z,35.59
2019-04-04T01:29:37.209Z,35.64
2019-04-04T01:30:11.740Z,35.61
2019-04-04T01:30:43.598Z,35.72
2019-04-04T01:31:15.648Z,35.66
2019-04-04T01:31:47.054Z,35.67
2019-04-04T01:32:18.370Z,35.74
2019-04-04T01:32:49.766Z,35.78
2019-04-04T01:33:21.104Z,35.75
2019-04-04T01:33:52.397Z,35.78
2019-04-04T01:34:23.692Z,35.82
2019-04-04T01:34:55.132Z,35.79
2019-04-04T01:35:26.538Z,35.83
2019-04-04T01:35:57.922Z,35.80
2019-04-04T01:36:29.313Z,35.84
2019-04-04T01:37:00.778Z,35.90
2019-04-04T01:37:32.071Z,35.96
2019-04-04T01:38:03.838Z,35.86
2019-04-04T01:38:35.243Z,35.99
2019-04-04T01:39:06.733Z,35.95
2019-04-04T01:39:38.183Z,35.95
2019-04-04T01:40:09.637Z,36.00
2019-04-04T01:40:40.990Z,36.06
2019-04-04T01:41:12.368Z,36.14
2019-04-04T01:41:43.719Z,36.13
2019-04-04T01:42:15.263Z,36.18
2019-04-04T01:42:47.719Z,36.18
2019-04-04T01:43:19.079Z,36.19
2019-04-04T01:44:04.145Z,36.20
2019-04-04T01:44:24.658Z,36.28
2019-04-04T01:44:55.981Z,36.31
2019-04-04T01:45:27.231Z,36.27
2019-04-04T01:45:58.654Z,36.28
2019-04-04T01:46:30.025Z,36.37
2019-04-04T01:47:01.443Z,36.39
2019-04-04T01:47:33.005Z,36.25
2019-04-04T01:48:04.335Z,36.34
2019-04-04T01:48:35.705Z,36.37
2019-04-04T01:49:07.033Z,36.45
2019-04-04T01:49:38.301Z,36.52
2019-04-04T01:50:09.729Z,36.47
2019-04-04T01:50:40.996Z,36.53
2019-04-04T01:51:12.319Z,36.56
2019-04-04T01:51:43.588Z,36.66
2019-04-04T01:52:14.916Z,36.62
2019-04-04T01:52:48.131Z,36.60
2019-04-04T01:53:19.506Z,36.66
2019-04-04T01:53:50.771Z,36.68
2019-04-04T01:54:22.205Z,36.73
2019-04-04T01:54:53.478Z,36.80
2019-04-04T01:55:24.835Z,36.81
2019-04-04T01:55:56.096Z,36.83
2019-04-04T01:56:27.424Z,36.84
2019-04-04T01:56:58.792Z,36.86
2019-04-04T01:57:30.523Z,36.93
2019-04-04T01:58:01.798Z,36.88
2019-04-04T01:58:33.464Z,36.95
2019-04-04T01:59:04.754Z,36.85
2019-04-04T01:59:36.074Z,36.95
2019-04-04T02:00:08.158Z,36.97
2019-04-04T02:00:39.596Z,37.00
2019-04-04T02:01:10.967Z,36.98
2019-04-04T02:01:42.264Z,37.00
2019-04-04T02:02:13.667Z,36.96
2019-04-04T02:02:45.024Z,37.05
2019-04-04T02:03:16.301Z,37.03
2019-04-04T02:03:47.724Z,37.05
2019-04-04T02:04:19.109Z,37.12
2019-04-04T02:04:50.385Z,37.10
2019-04-04T02:05:21.706Z,37.15
2019-04-04T02:05:52.977Z,37.10
2019-04-04T02:06:24.397Z,37.10
2019-04-04T02:06:58.815Z,37.14
2019-04-04T02:07:29.848Z,37.11
2019-04-04T02:08:01.687Z,37.20
2019-04-04T02:08:41.819Z,37.07
2019-04-04T02:09:13.225Z,37.22
2019-04-04T02:09:46.427Z,37.28
2019-04-04T02:10:17.676Z,37.34
2019-04-04T02:10:52.007Z,37.19
2019-04-04T02:11:23.295Z,37.32
2019-04-04T02:12:03.395Z,37.33
2019-04-04T02:12:34.691Z,37.42
2019-04-04T02:13:06.014Z,37.22
2019-04-04T02:13:38.876Z,37.38
2019-04-04T02:14:19.531Z,37.27
2019-04-04T02:14:56.806Z,37.33
2019-04-04T02:15:30.873Z,37.40
2019-04-04T02:16:02.161Z,37.39
2019-04-04T02:16:36.270Z,37.52
2019-04-04T02:17:15.270Z,37.47
2019-04-04T02:17:46.557Z,37.35
2019-04-04T02:18:17.864Z,37.46
2019-04-04T02:18:49.154Z,37.34
2019-04-04T02:19:20.478Z,37.39
2019-04-04T02:19:51.812Z,37.45
2019-04-04T02:20:23.177Z,37.38
2019-04-04T02:20:57.684Z,37.39
2019-04-04T02:21:28.782Z,37.43
2019-04-04T02:22:00.851Z,37.48
2019-04-04T02:22:32.207Z,37.62
2019-04-04T02:23:03.742Z,37.53
2019-04-04T02:23:35.083Z,37.61
2019-04-04T02:24:06.434Z,37.51
2019-04-04T02:24:37.846Z,37.36
2019-04-04T02:25:09.240Z,37.46
2019-04-04T02:25:40.714Z,37.39
2019-04-04T02:26:12.063Z,37.39
2019-04-04T02:26:43.442Z,37.38
2019-04-04T02:27:18.883Z,37.43
2019-04-04T02:27:50.195Z,37.39
2019-04-04T02:28:30.023Z,37.44
2019-04-04T02:29:06.951Z,37.38
2019-04-04T02:29:39.927Z,37.49
2019-04-04T02:30:21.145Z,37.50
2019-04-04T02:30:55.217Z,37.44
2019-04-04T02:31:34.318Z,37.37
2019-04-04T02:32:16.348Z,37.43
2019-04-04T02:32:53.838Z,37.46
2019-04-04T02:33:35.550Z,37.57
2019-04-04T02:34:09.649Z,37.50
2019-04-04T02:34:40.929Z,37.41
2019-04-04T02:35:12.220Z,37.46
2019-04-04T02:35:43.983Z,37.59
2019-04-04T02:36:16.762Z,37.49
2019-04-04T02:36:49.856Z,37.55
2019-04-04T02:37:22.079Z,37.53
2019-04-04T02:37:59.170Z,37.66
2019-04-04T02:38:30.689Z,37.56
2019-04-04T02:39:14.134Z,37.54
2019-04-04T02:39:51.273Z,37.44
2019-04-04T02:40:22.570Z,37.45
2019-04-04T02:40:53.916Z,37.45
2019-04-04T02:41:38.874Z,37.40
2019-04-04T02:42:10.213Z,37.43
2019-04-04T02:42:41.846Z,37.38
2019-04-04T02:43:13.202Z,37.41
2019-04-04T02:43:55.164Z,37.47
2019-04-04T02:44:26.502Z,37.55
2019-04-04T02:45:05.111Z,37.49
2019-04-04T02:45:48.795Z,37.54
2019-04-04T02:46:33.940Z,37.47
2019-04-04T02:47:17.339Z,37.49
2019-04-04T02:47:56.001Z,37.53
2019-04-04T02:48:33.204Z,37.57
2019-04-04T02:49:04.551Z,37.65
2019-04-04T02:49:35.935Z,37.64
2019-04-04T02:50:07.335Z,37.77
2019-04-04T02:50:38.629Z,37.74
2019-04-04T02:51:28.302Z,37.70
2019-04-04T02:52:07.142Z,37.71
2019-04-04T02:52:38.476Z,37.66
2019-04-04T02:53:10.899Z,37.72
2019-04-04T02:53:42.244Z,37.70
2019-04-04T02:54:13.589Z,37.72
2019-04-04T02:54:44.945Z,37.74
2019-04-04T02:55:21.902Z,37.76
2019-04-04T02:55:55.893Z,37.74
2019-04-04T02:56:34.973Z,37.79
2019-04-04T02:57:07.931Z,37.83
2019-04-04T02:58:15.046Z,37.85
2019-04-04T02:58:47.339Z,37.81
2019-04-04T02:59:22.060Z,37.84
2019-04-04T02:59:54.283Z,37.82
2019-04-04T03:00:30.383Z,37.82
2019-04-04T03:01:01.673Z,37.78
2019-04-04T03:01:35.972Z,37.75
2019-04-04T03:02:07.307Z,37.74
2019-04-04T03:02:38.662Z,37.73
2019-04-04T03:03:17.463Z,37.75
2019-04-04T03:03:57.706Z,38.03
2019-04-04T03:04:57.798Z,38.03
2019-04-04T03:05:31.667Z,38.05
2019-04-04T03:06:05.463Z,37.90
2019-04-04T03:06:36.801Z,37.91
2019-04-04T03:07:11.611Z,37.87
2019-04-04T03:07:45.569Z,38.14
2019-04-04T03:08:16.889Z,38.03
2019-04-04T03:09:09.046Z,38.06
2019-04-04T03:09:43.525Z,38.00
2019-04-04T03:10:16.481Z,37.94
2019-04-04T03:10:49.460Z,38.14
2019-04-04T03:11:40.002Z,38.10
2019-04-04T03:12:25.660Z,38.18
2019-04-04T03:12:58.502Z,38.18
2019-04-04T03:13:32.237Z,38.22
2019-04-04T03:14:04.757Z,38.15
2019-04-04T03:14:41.691Z,38.21
2019-04-04T03:15:13.017Z,38.18
2019-04-04T03:15:49.075Z,38.28
2019-04-04T03:16:21.513Z,38.33
2019-04-04T03:16:56.329Z,38.38
2019-04-04T03:17:32.634Z,38.36
2019-04-04T03:18:06.876Z,38.30
2019-04-04T03:18:38.232Z,38.30
2019-04-04T03:19:11.077Z,38.23
2019-04-04T03:19:43.787Z,38.31
2019-04-04T03:20:18.612Z,38.32
2019-04-04T03:20:52.763Z,38.40
2019-04-04T03:21:24.029Z,38.44
2019-04-04T03:21:56.483Z,38.35
2019-04-04T03:22:28.407Z,38.28
2019-04-04T03:23:08.811Z,38.34
2019-04-04T03:23:42.745Z,38.47
2019-04-04T03:24:38.682Z,38.46
2019-04-04T03:25:08.673Z,38.58
2019-04-04T03:25:46.759Z,38.56
2019-04-04T03:26:18.980Z,38.54
2019-04-04T03:26:52.217Z,38.60
2019-04-04T03:27:25.801Z,38.63
2019-04-04T03:27:58.264Z,38.54
2019-04-04T03:28:31.862Z,38.54
2019-04-04T03:29:05.466Z,38.68
2019-04-04T03:29:39.179Z,38.39
2019-04-04T03:30:14.347Z,38.70
2019-04-04T03:31:00.620Z,38.75
2019-04-04T03:31:22.600Z,38.70
2019-04-04T03:31:53.960Z,38.71
2019-04-04T03:32:25.257Z,38.65
2019-04-04T03:33:02.265Z,38.51
2019-04-04T03:33:33.643Z,38.51
2019-04-04T03:34:12.459Z,38.74
2019-04-04T03:34:47.803Z,38.81
2019-04-04T03:35:16.126Z,38.77
2019-04-04T03:35:48.386Z,38.84
2019-04-04T03:36:19.699Z,38.68
2019-04-04T03:36:53.750Z,38.73
2019-04-04T03:37:25.065Z,38.81
2019-04-04T03:37:57.304Z,38.91
2019-04-04T03:38:34.693Z,38.91
2019-04-04T03:39:11.932Z,38.82
2019-04-04T03:39:43.240Z,38.83
2019-04-04T03:40:25.931Z,38.73
2019-04-04T03:41:13.921Z,38.73
2019-04-04T03:41:45.173Z,38.93
2019-04-04T03:42:16.497Z,38.85
2019-04-04T03:42:59.643Z,38.86
2019-04-04T03:43:36.625Z,38.80
2019-04-04T03:44:13.780Z,38.80
2019-04-04T03:44:45.098Z,38.93
2019-04-04T03:45:27.322Z,38.88
2019-04-04T03:46:09.709Z,38.95
2019-04-04T03:46:40.961Z,38.92
2019-04-04T03:47:12.258Z,38.89
2019-04-04T03:47:50.301Z,38.89
2019-04-04T03:48:21.575Z,39.08
2019-04-04T03:48:58.555Z,39.09
2019-04-04T03:49:48.064Z,39.11
2019-04-04T03:50:22.197Z,39.12
2019-04-04T03:50:56.745Z,39.12
2019-04-04T03:51:37.084Z,39.08
2019-04-04T03:52:10.099Z,39.13
2019-04-04T03:52:44.276Z,39.13
2019-04-04T03:53:19.084Z,39.09
2019-04-04T03:53:55.191Z,39.20
2019-04-04T03:54:29.026Z,39.25
2019-04-04T03:55:00.450Z,39.35
2019-04-04T03:55:31.875Z,39.29
2019-04-04T03:56:06.361Z,39.27
2019-04-04T03:56:43.606Z,39.22
2019-04-04T03:57:27.743Z,39.29
2019-04-04T03:57:59.165Z,39.35
2019-04-04T03:58:30.511Z,39.31
2019-04-04T03:59:01.934Z,39.33
2019-04-04T03:59:33.414Z,39.36
2019-04-04T04:00:07.236Z,39.42
2019-04-04T04:00:46.400Z,39.41
2019-04-04T04:01:20.489Z,39.39
2019-04-04T04:02:01.522Z,39.18
2019-04-04T04:02:41.438Z,39.35
2019-04-04T04:03:12.718Z,39.38
2019-04-04T04:03:43.986Z,39.41
2019-04-04T04:04:21.126Z,39.42
2019-04-04T04:05:00.883Z,39.43
2019-04-04T04:05:35.728Z,39.42
2019-04-04T04:06:09.107Z,39.43
2019-04-04T04:06:42.058Z,39.58
2019-04-04T04:07:15.063Z,39.43
2019-04-04T04:07:48.058Z,39.42
2019-04-04T04:08:21.988Z,39.55
2019-04-04T04:08:54.821Z,39.48
2019-04-04T04:09:27.277Z,39.48
2019-04-04T04:09:59.795Z,39.35
2019-04-04T04:10:33.275Z,39.47
2019-04-04T04:11:05.804Z,39.62
2019-04-04T04:11:38.204Z,39.37
2019-04-04T04:12:11.065Z,39.57
2019-04-04T04:12:43.844Z,39.52
2019-04-04T04:13:17.287Z,39.48
2019-04-04T04:13:49.944Z,39.47
2019-04-04T04:14:22.129Z,39.50
2019-04-04T04:14:55.083Z,39.49
2019-04-04T04:15:29.355Z,39.47
2019-04-04T04:16:02.528Z,39.49
2019-04-04T04:16:35.929Z,39.55
2019-04-04T04:17:06.588Z,39.53
2019-04-04T04:17:39.637Z,39.53
2019-04-04T04:18:10.861Z,39.53
2019-04-04T04:18:42.092Z,39.58
2019-04-04T04:19:13.295Z,39.56
2019-04-04T04:19:44.451Z,39.69
2019-04-04T04:20:15.662Z,39.70
2019-04-04T04:20:46.920Z,39.66
2019-04-04T04:21:19.128Z,39.69
2019-04-04T04:21:50.282Z,39.70
2019-04-04T04:22:21.484Z,39.81
2019-04-04T04:22:53.644Z,39.75
2019-04-04T04:23:24.846Z,39.84
2019-04-04T04:23:56.916Z,39.74
2019-04-04T04:24:30.281Z,39.73
2019-04-04T04:25:03.271Z,39.75
2019-04-04T04:25:36.519Z,39.64
2019-04-04T04:26:09.319Z,39.70
2019-04-04T04:26:42.097Z,39.74
2019-04-04T04:27:15.587Z,39.73
2019-04-04T04:27:48.796Z,39.78
2019-04-04T04:28:20.855Z,39.75
2019-04-04T04:28:53.515Z,39.69
2019-04-04T04:29:26.982Z,39.67
2019-04-04T04:30:00.217Z,39.77
2019-04-04T04:30:31.141Z,39.76
2019-04-04T04:31:02.373Z,39.70
2019-04-04T04:31:33.604Z,39.69
2019-04-04T04:32:04.796Z,39.67
2019-04-04T04:32:37.393Z,39.74
2019-04-04T04:33:08.831Z,39.87
2019-04-04T04:33:40.032Z,39.75
2019-04-04T04:34:11.203Z,39.77
2019-04-04T04:34:42.383Z,39.73
2019-04-04T04:35:13.559Z,39.66
2019-04-04T04:35:44.750Z,39.67
2019-04-04T04:36:16.467Z,39.64
2019-04-04T04:36:48.552Z,39.63
2019-04-04T04:37:20.428Z,39.64
2019-04-04T04:37:53.859Z,39.64
2019-04-04T04:38:26.787Z,39.69
2019-04-04T04:38:59.980Z,39.71
2019-04-04T04:39:35.906Z,39.66
2019-04-04T04:40:08.021Z,39.66
2019-04-04T04:40:39.331Z,39.87
2019-04-04T04:41:10.552Z,39.78
2019-04-04T04:41:41.744Z,39.75
2019-04-04T04:42:12.934Z,39.64
2019-04-04T04:42:44.114Z,39.44
2019-04-04T04:43:16.009Z,39.63
2019-04-04T04:43:47.318Z,39.66
2019-04-04T04:44:18.521Z,39.61
2019-04-04T04:44:49.705Z,39.66
2019-04-04T04:45:20.856Z,39.70
2019-04-04T04:45:52.075Z,39.73
2019-04-04T04:46:23.228Z,39.84
2019-04-04T04:46:54.726Z,39.84
2019-04-04T04:47:25.888Z,39.78
2019-04-04T04:47:57.442Z,39.77
2019-04-04T04:48:31.841Z,39.90
2019-04-04T04:49:04.302Z,39.90
2019-04-04T04:49:36.348Z,39.84
2019-04-04T04:50:09.539Z,40.06
2019-04-04T04:50:41.135Z,39.79
2019-04-04T04:51:12.783Z,39.85
2019-04-04T04:51:44.291Z,39.86
2019-04-04T04:52:15.579Z,39.92
2019-04-04T04:52:47.585Z,39.98
2019-04-04T04:53:19.629Z,39.86
2019-04-04T04:53:51.338Z,39.70
2019-04-04T04:54:23.477Z,39.85
2019-04-04T04:54:55.573Z,39.78
2019-04-04T04:55:31.582Z,39.58
2019-04-04T04:56:02.841Z,39.80
2019-04-04T04:56:34.088Z,39.80
2019-04-04T04:57:05.352Z,39.83
2019-04-04T04:57:37.196Z,39.79
2019-04-04T04:58:10.473Z,40.16
2019-04-04T04:58:42.731Z,40.16
2019-04-04T04:59:14.058Z,39.86
2019-04-04T04:59:45.326Z,39.75
2019-04-04T05:00:16.784Z,39.72
2019-04-04T05:00:48.064Z,39.78
2019-04-04T05:01:20.394Z,39.81
2019-04-04T05:01:51.636Z,39.73
2019-04-04T05:02:24.732Z,39.76
2019-04-04T05:02:55.934Z,39.79
2019-04-04T05:03:27.090Z,39.86
2019-04-04T05:03:58.303Z,39.86
2019-04-04T05:04:29.452Z,39.88
2019-04-04T05:05:00.705Z,39.98
2019-04-04T05:05:32.052Z,39.95
2019-04-04T05:06:03.540Z,39.91
2019-04-04T05:06:35.596Z,39.96
2019-04-04T05:07:08.138Z,39.81
2019-04-04T05:07:39.361Z,39.94
2019-04-04T05:08:10.730Z,39.72
2019-04-04T05:08:41.925Z,39.91
2019-04-04T05:09:14.100Z,40.00
2019-04-04T05:09:45.773Z,39.91
2019-04-04T05:10:17.979Z,39.92
2019-04-04T05:10:49.137Z,39.99
2019-04-04T05:11:20.370Z,40.12
2019-04-04T05:11:51.532Z,39.95
2019-04-04T05:12:22.748Z,40.07
2019-04-04T05:12:54.004Z,40.01
2019-04-04T05:13:28.562Z,40.05
2019-04-04T05:13:58.836Z,40.01
2019-04-04T05:14:30.440Z,40.17
2019-04-04T05:15:05.497Z,40.19
2019-04-04T05:15:36.680Z,40.15
2019-04-04T05:16:08.961Z,40.18
2019-04-04T05:16:40.219Z,40.06
2019-04-04T05:17:11.432Z,40.14
2019-04-04T05:17:42.621Z,40.12
2019-04-04T05:18:14.140Z,40.08
2019-04-04T05:18:48.125Z,40.02
2019-04-04T05:19:19.728Z,40.03
2019-04-04T05:19:50.912Z,40.04
2019-04-04T05:20:23.123Z,39.99
2019-04-04T05:20:57.343Z,40.02
2019-04-04T05:21:28.942Z,40.06
2019-04-04T05:22:00.687Z,40.09
2019-04-04T05:22:31.889Z,39.95
2019-04-04T05:23:03.058Z,40.11
2019-04-04T05:23:34.237Z,40.08
2019-04-04T05:24:06.472Z,39.88
2019-04-04T05:24:37.707Z,39.92
2019-04-04T05:25:09.161Z,39.95
2019-04-04T05:25:51.736Z,39.93
2019-04-04T05:26:13.479Z,40.14
2019-04-04T05:26:44.642Z,40.11
2019-04-04T05:27:15.828Z,40.09
2019-04-04T05:27:46.992Z,40.05
2019-04-04T05:28:18.290Z,40.01
2019-04-04T05:28:49.448Z,39.99
2019-04-04T05:29:20.669Z,39.91
2019-04-04T05:29:51.801Z,40.02
2019-04-04T05:30:23.007Z,40.00
2019-04-04T05:30:54.175Z,39.85
2019-04-04T05:31:26.481Z,39.87
2019-04-04T05:31:57.629Z,39.78
2019-04-04T05:32:28.827Z,39.87
2019-04-04T05:33:00.010Z,39.84
2019-04-04T05:33:31.672Z,39.79
2019-04-04T05:34:03.212Z,39.87
2019-04-04T05:34:34.391Z,39.77
2019-04-04T05:35:05.572Z,39.73
2019-04-04T05:35:37.836Z,39.83
2019-04-04T05:36:09.140Z,39.81
2019-04-04T05:36:40.343Z,39.77
2019-04-04T05:37:11.492Z,39.79
2019-04-04T05:37:42.726Z,39.81
2019-04-04T05:38:13.893Z,40.02
2019-04-04T05:38:47.160Z,40.02
2019-04-04T05:39:18.785Z,39.89
2019-04-04T05:39:51.431Z,39.92
2019-04-04T05:40:24.151Z,40.04
2019-04-04T05:40:56.123Z,39.64
2019-04-04T05:41:28.054Z,39.81
2019-04-04T05:42:01.038Z,39.75
2019-04-04T05:42:33.012Z,39.88
2019-04-04T05:43:04.977Z,39.83
2019-04-04T05:43:37.534Z,39.73
2019-04-04T05:44:10.212Z,39.73
2019-04-04T05:44:42.333Z,39.88
2019-04-04T05:45:14.296Z,39.84
2019-04-04T05:45:46.395Z,39.90
2019-04-04T05:46:19.025Z,39.77
2019-04-04T05:46:51.940Z,39.81
2019-04-04T05:47:23.912Z,39.86
2019-04-04T05:47:57.150Z,39.79
2019-04-04T05:48:29.105Z,39.67
2019-04-04T05:49:07.541Z,39.60
2019-04-04T05:49:33.974Z,39.66
2019-04-04T05:50:05.277Z,39.78
2019-04-04T05:50:36.493Z,39.71
2019-04-04T05:51:07.659Z,39.77
2019-04-04T05:51:38.945Z,39.78
2019-04-04T05:52:10.092Z,39.76
2019-04-04T05:52:41.291Z,39.69
2019-04-04T05:53:15.564Z,39.66
2019-04-04T05:53:46.783Z,39.71
2019-04-04T05:54:17.915Z,39.78
2019-04-04T05:54:49.149Z,39.76
2019-04-04T05:55:20.284Z,39.79
2019-04-04T05:55:51.584Z,39.72
2019-04-04T05:56:24.208Z,39.72
2019-04-04T05:56:55.790Z,39.63
2019-04-04T05:57:26.948Z,39.73
2019-04-04T05:57:58.165Z,39.70
2019-04-04T05:58:29.316Z,39.66
2019-04-04T05:59:02.042Z,39.63
2019-04-04T05:59:33.207Z,39.66
2019-04-04T06:00:05.227Z,39.63
2019-04-04T06:00:37.117Z,39.74
2019-04-04T06:01:18.842Z,39.70
2019-04-04T06:01:50.120Z,39.64
2019-04-04T06:02:21.356Z,39.71
2019-04-04T06:02:52.530Z,39.73
2019-04-04T06:03:23.784Z,39.65
2019-04-04T06:03:55.087Z,39.63
2019-04-04T06:04:26.287Z,39.58
2019-04-04T06:04:57.586Z,39.57
2019-04-04T06:05:31.666Z,39.54
2019-04-04T06:06:02.032Z,39.48
2019-04-04T06:06:34.103Z,39.49
2019-04-04T06:07:05.469Z,39.41
2019-04-04T06:07:37.212Z,39.33
2019-04-04T06:08:08.812Z,39.32
2019-04-04T06:08:43.249Z,39.38
2019-04-04T06:09:14.694Z,39.39
2019-04-04T06:09:46.961Z,39.30
2019-04-04T06:10:19.092Z,39.17
2019-04-04T06:10:50.859Z,39.17
2019-04-04T06:11:22.121Z,39.28
2019-04-04T06:11:54.369Z,39.42
2019-04-04T06:12:25.763Z,39.31
2019-04-04T06:12:57.115Z,39.24
2019-04-04T06:13:28.383Z,39.19
2019-04-04T06:13:59.689Z,39.07
2019-04-04T06:14:31.124Z,39.07
2019-04-04T06:15:04.169Z,39.09
2019-04-04T06:15:35.403Z,39.09
2019-04-04T06:16:06.611Z,39.13
2019-04-04T06:16:37.806Z,39.23
2019-04-04T06:17:09.022Z,39.11
2019-04-04T06:17:40.274Z,39.24
2019-04-04T06:18:12.021Z,39.40
2019-04-04T06:18:43.627Z,39.13
2019-04-04T06:19:15.051Z,39.14
2019-04-04T06:19:46.415Z,39.27
2019-04-04T06:20:17.663Z,39.07
2019-04-04T06:20:49.103Z,39.05
2019-04-04T06:21:20.402Z,39.22
2019-04-04T06:21:51.562Z,39.33
2019-04-04T06:22:22.759Z,39.68
2019-04-04T06:22:53.892Z,39.42
2019-04-04T06:23:25.749Z,39.44
2019-04-04T06:23:56.975Z,39.24
2019-04-04T06:24:28.155Z,39.34
2019-04-04T06:24:59.974Z,39.34
2019-04-04T06:25:34.841Z,39.25
2019-04-04T06:26:07.428Z,39.17
2019-04-04T06:26:38.830Z,39.22
2019-04-04T06:27:10.053Z,39.04
2019-04-04T06:27:41.215Z,39.29
2019-04-04T06:28:12.687Z,39.08
2019-04-04T06:28:44.475Z,38.98
2019-04-04T06:29:17.350Z,38.92
2019-04-04T06:29:49.228Z,39.00
2019-04-04T06:30:20.794Z,38.97
2019-04-04T06:30:54.234Z,38.88
2019-04-04T06:31:26.932Z,38.97
2019-04-04T06:32:00.491Z,38.69
2019-04-04T06:32:31.699Z,38.87
2019-04-04T06:33:04.831Z,38.82
2019-04-04T06:33:35.979Z,38.54
2019-04-04T06:34:10.055Z,38.53
2019-04-04T06:34:42.075Z,38.53
2019-04-04T06:35:15.462Z,38.55
2019-04-04T06:35:47.849Z,38.61
2019-04-04T06:36:19.202Z,38.65
2019-04-04T06:36:50.377Z,38.72
2019-04-04T06:37:21.562Z,38.73
2019-04-04T06:37:52.744Z,38.86
2019-04-04T06:38:24.157Z,38.89
2019-04-04T06:38:55.395Z,38.76
2019-04-04T06:39:26.597Z,38.84
2019-04-04T06:39:58.859Z,38.77
2019-04-04T06:40:31.006Z,38.83
2019-04-04T06:41:02.530Z,38.77
2019-04-04T06:41:34.576Z,38.75
2019-04-04T06:42:05.720Z,38.66
2019-04-04T06:42:37.148Z,38.69
2019-04-04T06:43:11.595Z,38.58
2019-04-04T06:43:42.093Z,38.62
2019-04-04T06:44:13.718Z,38.69
2019-04-04T06:44:45.046Z,38.69
2019-04-04T06:45:16.287Z,38.59
2019-04-04T06:45:47.601Z,38.61
2019-04-04T06:46:22.533Z,38.67
2019-04-04T06:46:53.492Z,38.48
2019-04-04T06:47:25.505Z,38.29
2019-04-04T06:47:58.242Z,38.21
2019-04-04T06:48:33.472Z,38.51
2019-04-04T06:49:04.408Z,38.38
2019-04-04T06:49:36.269Z,38.36
2019-04-04T06:50:08.482Z,38.59
2019-04-04T06:50:42.895Z,38.42
2019-04-04T06:51:14.243Z,38.55
2019-04-04T06:51:46.462Z,38.32
2019-04-04T06:52:19.200Z,38.29
2019-04-04T06:52:51.135Z,38.40
2019-04-04T06:53:22.816Z,38.22
2019-04-04T06:53:54.564Z,38.27
2019-04-04T06:54:26.332Z,38.27
2019-04-04T06:54:58.042Z,38.28
2019-04-04T06:55:29.509Z,38.34
2019-04-04T06:56:01.055Z,38.27
2019-04-04T06:56:32.596Z,38.25
2019-04-04T06:57:04.694Z,38.31
2019-04-04T06:57:36.818Z,38.33
2019-04-04T06:58:09.716Z,38.17
2019-04-04T06:58:40.935Z,38.19
2019-04-04T06:59:12.457Z,38.25
2019-04-04T06:59:44.006Z,38.30
2019-04-04T07:00:15.891Z,38.28
2019-04-04T07:00:49.987Z,38.36
2019-04-04T07:01:21.907Z,38.32